sensor_id;sensor_type;location;lat;lon;timestamp;pressure;altitude;pressure_sealevel;temperature;humidity
31092;BME280;67728;53.122;12.776;2023-07-13T00:00:05;100377.63;;;16.03;76.84
31092;BME280;67728;53.122;12.776;2023-07-13T00:01:41;100379.06;;;15.90;77.38
31092;BME280;67728;53.122;12.776;2023-07-13T00:03:13;100382.66;;;15.88;77.78
31092;BME280;67728;53.122;12.776;2023-07-13T00:04:44;100371.16;;;15.72;78.33
31092;BME280;67728;53.122;12.776;2023-07-13T00:06:15;100381.03;;;15.85;78.64
31092;BME280;67728;53.122;12.776;2023-07-13T00:07:47;100372.75;;;15.76;78.19
31092;BME280;67728;53.122;12.776;2023-07-13T00:09:19;100375.03;;;15.83;78.10
31092;BME280;67728;53.122;12.776;2023-07-13T00:10:52;100372.81;;;15.94;78.61
31092;BME280;67728;53.122;12.776;2023-07-13T00:12:26;100382.63;;;15.89;77.97
31092;BME280;67728;53.122;12.776;2023-07-13T00:13:59;100371.13;;;15.73;78.30
31092;BME280;67728;53.122;12.776;2023-07-13T00:15:29;100377.66;;;15.83;78.76
31092;BME280;67728;53.122;12.776;2023-07-13T00:17:03;100378.50;;;15.84;78.09
31092;BME280;67728;53.122;12.776;2023-07-13T00:18:34;100378.44;;;15.85;78.86
31092;BME280;67728;53.122;12.776;2023-07-13T00:20:07;100387.13;;;15.86;78.17
31092;BME280;67728;53.122;12.776;2023-07-13T00:21:38;100383.56;;;15.45;79.92
31092;BME280;67728;53.122;12.776;2023-07-13T00:23:10;100391.22;;;15.28;79.80
31092;BME280;67728;53.122;12.776;2023-07-13T00:24:40;100398.16;;;15.29;80.30
31092;BME280;67728;53.122;12.776;2023-07-13T00:26:13;100397.38;;;15.27;80.48
31092;BME280;67728;53.122;12.776;2023-07-13T00:27:44;100391.53;;;15.20;80.83
31092;BME280;67728;53.122;12.776;2023-07-13T00:29:15;100388.31;;;14.92;81.58
31092;BME280;67728;53.122;12.776;2023-07-13T00:30:46;100386.78;;;14.86;81.25
31092;BME280;67728;53.122;12.776;2023-07-13T00:32:19;100392.84;;;14.87;81.78
31092;BME280;67728;53.122;12.776;2023-07-13T00:33:50;100390.94;;;14.92;81.37
31092;BME280;67728;53.122;12.776;2023-07-13T00:35:21;100384.97;;;14.88;81.75
31092;BME280;67728;53.122;12.776;2023-07-13T00:36:52;100397.50;;;15.02;81.83
31092;BME280;67728;53.122;12.776;2023-07-13T00:38:24;100399.91;;;15.07;81.90
31092;BME280;67728;53.122;12.776;2023-07-13T00:39:54;100401.63;;;15.08;80.91
31092;BME280;67728;53.122;12.776;2023-07-13T00:41:26;100413.59;;;15.13;81.51
31092;BME280;67728;53.122;12.776;2023-07-13T00:42:58;100413.72;;;15.10;81.76
31092;BME280;67728;53.122;12.776;2023-07-13T00:44:29;100414.03;;;15.03;82.04
31092;BME280;67728;53.122;12.776;2023-07-13T00:46:20;100417.03;;;14.69;83.14
31092;BME280;67728;53.122;12.776;2023-07-13T00:47:53;100421.56;;;14.64;83.49
31092;BME280;67728;53.122;12.776;2023-07-13T00:49:27;100424.63;;;14.52;84.01
31092;BME280;67728;53.122;12.776;2023-07-13T00:51:01;100431.13;;;14.65;82.67
31092;BME280;67728;53.122;12.776;2023-07-13T00:52:33;100431.06;;;14.66;82.90
31092;BME280;67728;53.122;12.776;2023-07-13T00:54:10;100435.19;;;14.49;82.98
31092;BME280;67728;53.122;12.776;2023-07-13T00:55:42;100429.50;;;14.38;83.73
31092;BME280;67728;53.122;12.776;2023-07-13T00:57:17;100432.50;;;14.50;83.60
31092;BME280;67728;53.122;12.776;2023-07-13T00:58:49;100438.38;;;14.57;83.47
31092;BME280;67728;53.122;12.776;2023-07-13T01:00:22;100432.69;;;14.69;82.97
31092;BME280;67728;53.122;12.776;2023-07-13T01:01:54;100439.16;;;14.82;83.32
31092;BME280;67728;53.122;12.776;2023-07-13T01:03:27;100439.13;;;14.83;83.00
31092;BME280;67728;53.122;12.776;2023-07-13T01:04:58;100434.69;;;14.85;82.26
31092;BME280;67728;53.122;12.776;2023-07-13T01:06:30;100438.31;;;14.81;82.83
31092;BME280;67728;53.122;12.776;2023-07-13T01:08:02;100436.72;;;14.77;82.54
31092;BME280;67728;53.122;12.776;2023-07-13T01:09:35;100427.47;;;14.69;82.62
31092;BME280;67728;53.122;12.776;2023-07-13T01:11:06;100432.53;;;14.73;82.49
31092;BME280;67728;53.122;12.776;2023-07-13T01:12:39;100430.75;;;14.74;83.11
31092;BME280;67728;53.122;12.776;2023-07-13T01:14:09;100430.75;;;14.74;82.52
31092;BME280;67728;53.122;12.776;2023-07-13T01:15:43;100431.50;;;14.77;82.73
31092;BME280;67728;53.122;12.776;2023-07-13T01:17:15;100432.28;;;14.79;82.92
31092;BME280;67728;53.122;12.776;2023-07-13T01:18:48;100429.00;;;14.74;82.71
31092;BME280;67728;53.122;12.776;2023-07-13T01:20:19;100424.56;;;14.76;82.22
31092;BME280;67728;53.122;12.776;2023-07-13T01:21:52;100423.22;;;14.89;82.56
31092;BME280;67728;53.122;12.776;2023-07-13T01:23:24;100431.63;;;14.98;82.30
31092;BME280;67728;53.122;12.776;2023-07-13T01:24:56;100437.88;;;14.93;83.12
31092;BME280;67728;53.122;12.776;2023-07-13T01:26:27;100438.63;;;14.97;81.92
31092;BME280;67728;53.122;12.776;2023-07-13T01:27:58;100438.84;;;14.91;81.43
31092;BME280;67728;53.122;12.776;2023-07-13T01:29:31;100430.88;;;14.94;81.49
31092;BME280;67728;53.122;12.776;2023-07-13T01:31:04;100443.94;;;14.94;81.93
31092;BME280;67728;53.122;12.776;2023-07-13T01:32:34;100445.50;;;14.98;81.21
31092;BME280;67728;53.122;12.776;2023-07-13T01:34:07;100458.31;;;15.06;80.58
31092;BME280;67728;53.122;12.776;2023-07-13T01:35:38;100457.47;;;15.05;80.62
31092;BME280;67728;53.122;12.776;2023-07-13T01:37:11;100453.66;;;14.90;81.68
31092;BME280;67728;53.122;12.776;2023-07-13T01:38:42;100451.09;;;14.89;81.09
31092;BME280;67728;53.122;12.776;2023-07-13T01:40:14;100444.81;;;14.94;81.52
31092;BME280;67728;53.122;12.776;2023-07-13T01:41:45;100450.63;;;15.01;81.35
31092;BME280;67728;53.122;12.776;2023-07-13T01:43:17;100446.75;;;15.11;81.83
31092;BME280;67728;53.122;12.776;2023-07-13T01:44:48;100444.13;;;15.11;81.39
31092;BME280;67728;53.122;12.776;2023-07-13T01:46:19;100448.44;;;14.90;81.11
31092;BME280;67728;53.122;12.776;2023-07-13T01:47:51;100445.03;;;14.88;81.32
31092;BME280;67728;53.122;12.776;2023-07-13T01:49:21;100440.56;;;14.92;81.17
31092;BME280;67728;53.122;12.776;2023-07-13T01:50:53;100443.88;;;14.95;80.88
31092;BME280;67728;53.122;12.776;2023-07-13T01:52:26;100449.91;;;14.98;80.85
31092;BME280;67728;53.122;12.776;2023-07-13T01:53:57;100451.72;;;14.95;81.25
31092;BME280;67728;53.122;12.776;2023-07-13T01:55:29;100444.53;;;15.01;81.79
31092;BME280;67728;53.122;12.776;2023-07-13T01:56:59;100450.25;;;14.88;81.12
31092;BME280;67728;53.122;12.776;2023-07-13T01:58:31;100450.69;;;14.76;81.54
31092;BME280;67728;53.122;12.776;2023-07-13T02:00:06;100443.88;;;14.72;81.72
31092;BME280;67728;53.122;12.776;2023-07-13T02:01:38;100450.00;;;14.71;82.99
31092;BME280;67728;53.122;12.776;2023-07-13T02:03:08;100444.00;;;14.69;82.50
31092;BME280;67728;53.122;12.776;2023-07-13T02:04:40;100445.84;;;14.66;82.85
31092;BME280;67728;53.122;12.776;2023-07-13T02:06:11;100450.78;;;14.73;82.42
31092;BME280;67728;53.122;12.776;2023-07-13T02:07:44;100450.56;;;14.79;82.85
31092;BME280;67728;53.122;12.776;2023-07-13T02:09:15;100447.41;;;14.71;81.99
31092;BME280;67728;53.122;12.776;2023-07-13T02:10:46;100452.72;;;14.68;82.97
31092;BME280;67728;53.122;12.776;2023-07-13T02:12:18;100455.59;;;14.62;83.51
31092;BME280;67728;53.122;12.776;2023-07-13T02:13:48;100458.19;;;14.62;83.92
31092;BME280;67728;53.122;12.776;2023-07-13T02:15:20;100452.50;;;14.74;83.16
31092;BME280;67728;53.122;12.776;2023-07-13T02:16:51;100461.53;;;14.66;83.81
31092;BME280;67728;53.122;12.776;2023-07-13T02:18:22;100450.22;;;14.65;83.76
31092;BME280;67728;53.122;12.776;2023-07-13T02:19:53;100459.94;;;14.62;83.54
31092;BME280;67728;53.122;12.776;2023-07-13T02:21:25;100461.16;;;14.52;84.41
31092;BME280;67728;53.122;12.776;2023-07-13T02:22:58;100454.28;;;14.49;84.17
31092;BME280;67728;53.122;12.776;2023-07-13T02:24:28;100456.78;;;14.52;84.53
31092;BME280;67728;53.122;12.776;2023-07-13T02:26:01;100455.78;;;14.56;84.28
31092;BME280;67728;53.122;12.776;2023-07-13T02:27:32;100456.41;;;14.63;84.37
31092;BME280;67728;53.122;12.776;2023-07-13T02:29:04;100464.94;;;14.68;83.96
31092;BME280;67728;53.122;12.776;2023-07-13T02:30:35;100460.22;;;14.77;83.83
31092;BME280;67728;53.122;12.776;2023-07-13T02:32:08;100453.25;;;14.78;83.22
31092;BME280;67728;53.122;12.776;2023-07-13T02:33:38;100458.69;;;14.72;83.86
31092;BME280;67728;53.122;12.776;2023-07-13T02:35:10;100464.00;;;14.70;84.82
31092;BME280;67728;53.122;12.776;2023-07-13T02:36:42;100473.28;;;14.77;83.37
31092;BME280;67728;53.122;12.776;2023-07-13T02:38:14;100469.59;;;14.83;83.46
31092;BME280;67728;53.122;12.776;2023-07-13T02:39:45;100471.53;;;14.78;83.32
31092;BME280;67728;53.122;12.776;2023-07-13T02:41:16;100474.94;;;14.80;83.19
31092;BME280;67728;53.122;12.776;2023-07-13T02:42:47;100470.47;;;14.83;83.82
31092;BME280;67728;53.122;12.776;2023-07-13T02:44:19;100472.91;;;14.88;83.65
31092;BME280;67728;53.122;12.776;2023-07-13T02:45:50;100474.53;;;14.90;83.70
31092;BME280;67728;53.122;12.776;2023-07-13T02:47:21;100479.47;;;14.98;84.87
31092;BME280;67728;53.122;12.776;2023-07-13T02:48:52;100487.97;;;15.03;84.49
31092;BME280;67728;53.122;12.776;2023-07-13T02:50:24;100481.88;;;15.04;84.20
31092;BME280;67728;53.122;12.776;2023-07-13T02:51:55;100482.63;;;15.08;84.08
31092;BME280;67728;53.122;12.776;2023-07-13T02:53:27;100485.78;;;15.16;84.01
31092;BME280;67728;53.122;12.776;2023-07-13T02:54:59;100485.56;;;15.22;83.58
31092;BME280;67728;53.122;12.776;2023-07-13T02:56:31;100486.16;;;15.28;84.10
31092;BME280;67728;53.122;12.776;2023-07-13T02:58:03;100479.84;;;15.34;82.75
31092;BME280;67728;53.122;12.776;2023-07-13T02:59:33;100482.28;;;15.38;83.68
31092;BME280;67728;53.122;12.776;2023-07-13T03:01:06;100479.50;;;15.43;82.55
31092;BME280;67728;53.122;12.776;2023-07-13T03:02:37;100488.13;;;15.45;83.18
31092;BME280;67728;53.122;12.776;2023-07-13T03:04:09;100490.66;;;15.48;83.06
31092;BME280;67728;53.122;12.776;2023-07-13T03:05:41;100486.09;;;15.53;82.04
31092;BME280;67728;53.122;12.776;2023-07-13T03:07:13;100483.47;;;15.53;82.59
31092;BME280;67728;53.122;12.776;2023-07-13T03:08:47;100492.09;;;15.55;82.55
31092;BME280;67728;53.122;12.776;2023-07-13T03:10:19;100485.97;;;15.56;82.15
31092;BME280;67728;53.122;12.776;2023-07-13T03:11:52;100483.97;;;15.63;82.15
31092;BME280;67728;53.122;12.776;2023-07-13T03:13:23;100494.19;;;15.69;81.69
31092;BME280;67728;53.122;12.776;2023-07-13T03:14:55;100493.41;;;15.67;82.63
31092;BME280;67728;53.122;12.776;2023-07-13T03:16:25;100494.25;;;15.67;82.44
31092;BME280;67728;53.122;12.776;2023-07-13T03:17:57;100499.38;;;15.70;82.70
31092;BME280;67728;53.122;12.776;2023-07-13T03:19:28;100494.13;;;15.70;82.76
31092;BME280;67728;53.122;12.776;2023-07-13T03:21:00;100489.69;;;15.72;83.61
31092;BME280;67728;53.122;12.776;2023-07-13T03:22:30;100488.78;;;15.73;82.69
31092;BME280;67728;53.122;12.776;2023-07-13T03:24:04;100486.09;;;15.75;82.61
31092;BME280;67728;53.122;12.776;2023-07-13T03:25:35;100484.50;;;15.71;82.55
31092;BME280;67728;53.122;12.776;2023-07-13T03:27:06;100479.09;;;15.75;82.71
31092;BME280;67728;53.122;12.776;2023-07-13T03:28:38;100480.75;;;15.78;82.75
31092;BME280;67728;53.122;12.776;2023-07-13T03:30:10;100481.50;;;15.81;83.48
31092;BME280;67728;53.122;12.776;2023-07-13T03:31:41;100472.78;;;15.81;83.13
31092;BME280;67728;53.122;12.776;2023-07-13T03:33:12;100471.84;;;15.82;83.84
31092;BME280;67728;53.122;12.776;2023-07-13T03:34:43;100477.03;;;15.83;82.99
31092;BME280;67728;53.122;12.776;2023-07-13T03:36:16;100476.09;;;15.84;83.61
31092;BME280;67728;53.122;12.776;2023-07-13T03:37:49;100476.97;;;15.85;83.45
31092;BME280;67728;53.122;12.776;2023-07-13T03:39:23;100476.91;;;15.86;83.55
31092;BME280;67728;53.122;12.776;2023-07-13T03:40:54;100475.00;;;15.90;83.44
31092;BME280;67728;53.122;12.776;2023-07-13T03:42:25;100481.94;;;15.91;83.31
31092;BME280;67728;53.122;12.776;2023-07-13T03:43:56;100478.56;;;15.89;83.65
31092;BME280;67728;53.122;12.776;2023-07-13T03:45:27;100489.88;;;15.89;83.81
31092;BME280;67728;53.122;12.776;2023-07-13T03:46:59;100482.81;;;15.91;83.62
31092;BME280;67728;53.122;12.776;2023-07-13T03:48:29;100478.47;;;15.90;83.09
31092;BME280;67728;53.122;12.776;2023-07-13T03:50:01;100481.03;;;15.92;83.88
31092;BME280;67728;53.122;12.776;2023-07-13T03:51:32;100479.00;;;15.98;83.67
31092;BME280;67728;53.122;12.776;2023-07-13T03:53:04;100477.31;;;15.97;83.76
31092;BME280;67728;53.122;12.776;2023-07-13T03:54:36;100474.72;;;15.97;83.34
31092;BME280;67728;53.122;12.776;2023-07-13T03:56:08;100475.63;;;15.96;83.77
31092;BME280;67728;53.122;12.776;2023-07-13T03:57:39;100478.84;;;16.03;83.62
31092;BME280;67728;53.122;12.776;2023-07-13T03:59:11;100479.53;;;16.06;82.89
31092;BME280;67728;53.122;12.776;2023-07-13T04:00:42;100480.31;;;16.08;82.97
31092;BME280;67728;53.122;12.776;2023-07-13T04:02:13;100478.44;;;16.12;82.77
31092;BME280;67728;53.122;12.776;2023-07-13T04:03:45;100488.78;;;16.15;83.38
31092;BME280;67728;53.122;12.776;2023-07-13T04:05:16;100486.13;;;16.17;82.48
31092;BME280;67728;53.122;12.776;2023-07-13T04:06:49;100485.13;;;16.19;82.91
31092;BME280;67728;53.122;12.776;2023-07-13T04:08:19;100490.28;;;16.21;82.81
31092;BME280;67728;53.122;12.776;2023-07-13T04:09:52;100490.94;;;16.26;82.46
31092;BME280;67728;53.122;12.776;2023-07-13T04:11:26;100494.41;;;16.26;83.20
31092;BME280;67728;53.122;12.776;2023-07-13T04:12:57;100487.47;;;16.25;82.40
31092;BME280;67728;53.122;12.776;2023-07-13T04:14:29;100490.91;;;16.27;81.98
31092;BME280;67728;53.122;12.776;2023-07-13T04:16:00;100489.06;;;16.29;82.80
31092;BME280;67728;53.122;12.776;2023-07-13T04:17:31;100493.34;;;16.30;82.92
31092;BME280;67728;53.122;12.776;2023-07-13T04:19:03;100482.84;;;16.32;82.51
31092;BME280;67728;53.122;12.776;2023-07-13T04:20:33;100487.22;;;16.31;82.22
31092;BME280;67728;53.122;12.776;2023-07-13T04:22:05;100489.78;;;16.33;82.16
31092;BME280;67728;53.122;12.776;2023-07-13T04:23:36;100489.63;;;16.36;81.90
31092;BME280;67728;53.122;12.776;2023-07-13T04:25:09;100494.09;;;16.34;82.55
31092;BME280;67728;53.122;12.776;2023-07-13T04:26:40;100494.88;;;16.36;81.83
31092;BME280;67728;53.122;12.776;2023-07-13T04:28:11;100489.78;;;16.33;82.74
31092;BME280;67728;53.122;12.776;2023-07-13T04:29:42;100499.31;;;16.34;81.76
31092;BME280;67728;53.122;12.776;2023-07-13T04:31:14;100496.72;;;16.34;82.18
31092;BME280;67728;53.122;12.776;2023-07-13T04:32:45;100500.19;;;16.34;82.30
31092;BME280;67728;53.122;12.776;2023-07-13T04:34:16;100495.84;;;16.33;82.33
31092;BME280;67728;53.122;12.776;2023-07-13T04:35:47;100495.81;;;16.35;82.90
31092;BME280;67728;53.122;12.776;2023-07-13T04:37:20;100497.34;;;16.39;82.08
31092;BME280;67728;53.122;12.776;2023-07-13T04:38:50;100489.78;;;16.33;81.55
31092;BME280;67728;53.122;12.776;2023-07-13T04:40:23;100486.22;;;16.34;82.12
31092;BME280;67728;53.122;12.776;2023-07-13T04:41:54;100486.34;;;16.31;82.33
31092;BME280;67728;53.122;12.776;2023-07-13T04:43:26;100495.69;;;16.38;81.53
31092;BME280;67728;53.122;12.776;2023-07-13T04:44:59;100491.59;;;16.31;81.87
31092;BME280;67728;53.122;12.776;2023-07-13T04:46:29;100494.09;;;16.34;81.83
31092;BME280;67728;53.122;12.776;2023-07-13T04:48:01;100491.47;;;16.34;81.89
31092;BME280;67728;53.122;12.776;2023-07-13T04:49:31;100501.03;;;16.35;81.89
31092;BME280;67728;53.122;12.776;2023-07-13T04:51:04;100501.44;;;16.46;82.25
31092;BME280;67728;53.122;12.776;2023-07-13T04:52:35;100498.16;;;16.61;81.58
31092;BME280;67728;53.122;12.776;2023-07-13T04:54:06;100495.34;;;16.65;80.99
31092;BME280;67728;53.122;12.776;2023-07-13T04:55:39;100510.28;;;16.63;81.50
31092;BME280;67728;53.122;12.776;2023-07-13T04:57:11;100499.59;;;16.68;81.17
31092;BME280;67728;53.122;12.776;2023-07-13T04:58:42;100516.50;;;16.61;80.79
31092;BME280;67728;53.122;12.776;2023-07-13T05:00:14;100522.53;;;16.63;81.62
31092;BME280;67728;53.122;12.776;2023-07-13T05:01:45;100516.38;;;16.64;80.74
31092;BME280;67728;53.122;12.776;2023-07-13T05:03:17;100516.25;;;16.67;80.87
31092;BME280;67728;53.122;12.776;2023-07-13T05:04:48;100515.81;;;16.76;80.99
31092;BME280;67728;53.122;12.776;2023-07-13T05:06:20;100510.28;;;16.84;80.05
31092;BME280;67728;53.122;12.776;2023-07-13T05:07:52;100512.16;;;16.80;80.59
31092;BME280;67728;53.122;12.776;2023-07-13T05:09:23;100514.44;;;16.88;79.43
31092;BME280;67728;53.122;12.776;2023-07-13T05:10:56;100509.84;;;17.11;79.16
31092;BME280;67728;53.122;12.776;2023-07-13T05:12:28;100512.97;;;17.19;78.36
31092;BME280;67728;53.122;12.776;2023-07-13T05:13:58;100522.69;;;17.17;78.68
31092;BME280;67728;53.122;12.776;2023-07-13T05:15:33;100517.03;;;17.26;78.25
31092;BME280;67728;53.122;12.776;2023-07-13T05:17:04;100516.47;;;17.20;78.70
31092;BME280;67728;53.122;12.776;2023-07-13T05:18:36;100513.69;;;17.23;78.86
31092;BME280;67728;53.122;12.776;2023-07-13T05:20:08;100516.09;;;17.27;78.53
31092;BME280;67728;53.122;12.776;2023-07-13T05:21:39;100509.94;;;17.28;78.59
31092;BME280;67728;53.122;12.776;2023-07-13T05:23:11;100516.78;;;17.32;78.15
31092;BME280;67728;53.122;12.776;2023-07-13T05:24:42;100521.16;;;17.32;78.48
31092;BME280;67728;53.122;12.776;2023-07-13T05:26:15;100516.53;;;17.37;78.36
31092;BME280;67728;53.122;12.776;2023-07-13T05:27:45;100520.88;;;17.38;78.49
31092;BME280;67728;53.122;12.776;2023-07-13T05:29:17;100525.13;;;17.41;77.97
31092;BME280;67728;53.122;12.776;2023-07-13T05:30:48;100527.44;;;17.47;77.48
31092;BME280;67728;53.122;12.776;2023-07-13T05:32:20;100520.19;;;17.53;77.55
31092;BME280;67728;53.122;12.776;2023-07-13T05:33:52;100530.16;;;17.64;77.16
31092;BME280;67728;53.122;12.776;2023-07-13T05:35:22;100519.81;;;17.61;77.29
31092;BME280;67728;53.122;12.776;2023-07-13T05:36:54;100525.84;;;17.63;77.76
31092;BME280;67728;53.122;12.776;2023-07-13T05:38:25;100519.91;;;17.59;77.59
31092;BME280;67728;53.122;12.776;2023-07-13T05:39:56;100524.00;;;17.65;77.58
31092;BME280;67728;53.122;12.776;2023-07-13T05:41:28;100516.47;;;17.76;77.21
31092;BME280;67728;53.122;12.776;2023-07-13T05:43:00;100519.88;;;17.78;76.77
31092;BME280;67728;53.122;12.776;2023-07-13T05:44:30;100515.97;;;17.86;76.71
31092;BME280;67728;53.122;12.776;2023-07-13T05:46:02;100517.44;;;17.92;76.71
31092;BME280;67728;53.122;12.776;2023-07-13T05:47:33;100521.22;;;18.04;76.47
31092;BME280;67728;53.122;12.776;2023-07-13T05:49:04;100515.13;;;18.20;75.61
31092;BME280;67728;53.122;12.776;2023-07-13T05:50:36;100523.16;;;18.17;75.92
31092;BME280;67728;53.122;12.776;2023-07-13T05:52:07;100518.63;;;18.21;75.84
31092;BME280;67728;53.122;12.776;2023-07-13T05:53:39;100529.13;;;18.21;74.91
31092;BME280;67728;53.122;12.776;2023-07-13T05:55:10;100527.97;;;18.26;75.11
31092;BME280;67728;53.122;12.776;2023-07-13T05:56:43;100528.34;;;18.36;74.52
31092;BME280;67728;53.122;12.776;2023-07-13T05:58:14;100534.00;;;18.45;74.56
31092;BME280;67728;53.122;12.776;2023-07-13T05:59:45;100529.03;;;18.39;74.12
31092;BME280;67728;53.122;12.776;2023-07-13T06:01:16;100523.75;;;18.41;74.56
31092;BME280;67728;53.122;12.776;2023-07-13T06:02:50;100534.25;;;18.41;74.78
31092;BME280;67728;53.122;12.776;2023-07-13T06:04:21;100534.16;;;18.42;75.08
31092;BME280;67728;53.122;12.776;2023-07-13T06:05:52;100534.84;;;18.46;75.15
31092;BME280;67728;53.122;12.776;2023-07-13T06:07:23;100536.97;;;18.57;74.34
31092;BME280;67728;53.122;12.776;2023-07-13T06:08:55;100529.38;;;18.68;73.87
31092;BME280;67728;53.122;12.776;2023-07-13T06:10:25;100533.69;;;18.69;74.07
31092;BME280;67728;53.122;12.776;2023-07-13T06:11:58;100543.81;;;18.76;74.01
31092;BME280;67728;53.122;12.776;2023-07-13T06:13:29;100546.63;;;18.73;73.77
31092;BME280;67728;53.122;12.776;2023-07-13T06:15:01;100547.38;;;18.75;73.49
31092;BME280;67728;53.122;12.776;2023-07-13T06:16:31;100544.25;;;18.84;73.47
31092;BME280;67728;53.122;12.776;2023-07-13T06:18:03;100539.84;;;18.85;73.17
31092;BME280;67728;53.122;12.776;2023-07-13T06:19:34;100546.22;;;18.81;73.27
31092;BME280;67728;53.122;12.776;2023-07-13T06:21:07;100548.53;;;18.87;73.09
31092;BME280;67728;53.122;12.776;2023-07-13T06:22:37;100551.09;;;19.04;72.78
31092;BME280;67728;53.122;12.776;2023-07-13T06:24:10;100550.34;;;19.02;72.66
31092;BME280;67728;53.122;12.776;2023-07-13T06:25:42;100555.34;;;19.06;72.57
31092;BME280;67728;53.122;12.776;2023-07-13T06:27:16;100555.88;;;19.13;70.46
31092;BME280;67728;53.122;12.776;2023-07-13T06:28:46;100558.34;;;19.16;71.35
31092;BME280;67728;53.122;12.776;2023-07-13T06:30:18;100553.53;;;19.24;70.88
31092;BME280;67728;53.122;12.776;2023-07-13T06:31:49;100552.56;;;19.42;70.46
31092;BME280;67728;53.122;12.776;2023-07-13T06:33:20;100544.34;;;19.48;70.68
31092;BME280;67728;53.122;12.776;2023-07-13T06:34:51;100548.06;;;19.60;70.62
31092;BME280;67728;53.122;12.776;2023-07-13T06:36:23;100540.94;;;19.78;69.73
31092;BME280;67728;53.122;12.776;2023-07-13T06:37:53;100535.53;;;19.81;70.49
31092;BME280;67728;53.122;12.776;2023-07-13T06:39:25;100539.81;;;19.82;69.33
31092;BME280;67728;53.122;12.776;2023-07-13T06:40:57;100540.44;;;19.71;68.74
31092;BME280;67728;53.122;12.776;2023-07-13T06:42:29;100538.59;;;19.73;66.54
31092;BME280;67728;53.122;12.776;2023-07-13T06:44:00;100537.63;;;19.58;65.63
31092;BME280;67728;53.122;12.776;2023-07-13T06:45:32;100540.00;;;19.63;65.71
31092;BME280;67728;53.122;12.776;2023-07-13T06:47:05;100540.59;;;19.52;66.07
31092;BME280;67728;53.122;12.776;2023-07-13T06:48:36;100544.63;;;19.59;65.59
31092;BME280;67728;53.122;12.776;2023-07-13T06:50:08;100544.69;;;19.58;65.23
31092;BME280;67728;53.122;12.776;2023-07-13T06:51:39;100552.56;;;19.58;64.86
31092;BME280;67728;53.122;12.776;2023-07-13T06:53:10;100546.38;;;19.59;64.64
31092;BME280;67728;53.122;12.776;2023-07-13T06:54:41;100547.06;;;19.62;64.67
31092;BME280;67728;53.122;12.776;2023-07-13T06:56:13;100548.75;;;19.63;64.18
31092;BME280;67728;53.122;12.776;2023-07-13T06:57:46;100547.31;;;19.58;64.69
31092;BME280;67728;53.122;12.776;2023-07-13T06:59:17;100545.84;;;19.68;64.57
31092;BME280;67728;53.122;12.776;2023-07-13T07:00:50;100548.75;;;19.79;64.04
31092;BME280;67728;53.122;12.776;2023-07-13T07:02:21;100552.59;;;19.89;62.90
31092;BME280;67728;53.122;12.776;2023-07-13T07:03:52;100552.56;;;20.05;63.55
31092;BME280;67728;53.122;12.776;2023-07-13T07:05:24;100549.03;;;20.20;62.74
31092;BME280;67728;53.122;12.776;2023-07-13T07:06:55;100545.34;;;20.24;61.10
31092;BME280;67728;53.122;12.776;2023-07-13T07:08:26;100541.78;;;20.39;59.35
31092;BME280;67728;53.122;12.776;2023-07-13T07:09:58;100540.91;;;20.54;59.93
31092;BME280;67728;53.122;12.776;2023-07-13T07:11:29;100546.28;;;20.67;60.46
31092;BME280;67728;53.122;12.776;2023-07-13T07:13:02;100546.41;;;20.79;58.07
31092;BME280;67728;53.122;12.776;2023-07-13T07:14:33;100539.69;;;20.74;57.74
31092;BME280;67728;53.122;12.776;2023-07-13T07:16:05;100550.78;;;21.09;58.89
31092;BME280;67728;53.122;12.776;2023-07-13T07:17:36;100544.34;;;20.70;55.64
31092;BME280;67728;53.122;12.776;2023-07-13T07:19:07;100551.97;;;20.89;57.19
31092;BME280;67728;53.122;12.776;2023-07-13T07:20:39;100547.50;;;21.19;57.66
31092;BME280;67728;53.122;12.776;2023-07-13T07:22:10;100544.47;;;21.39;56.54
31092;BME280;67728;53.122;12.776;2023-07-13T07:23:42;100545.66;;;21.62;55.19
31092;BME280;67728;53.122;12.776;2023-07-13T07:25:14;100543.72;;;21.78;55.51
31092;BME280;67728;53.122;12.776;2023-07-13T07:26:44;100544.28;;;21.83;54.33
31092;BME280;67728;53.122;12.776;2023-07-13T07:28:17;100553.00;;;21.98;52.90
31092;BME280;67728;53.122;12.776;2023-07-13T07:29:48;100547.44;;;22.02;52.41
31092;BME280;67728;53.122;12.776;2023-07-13T07:31:20;100546.13;;;21.95;51.67
31092;BME280;67728;53.122;12.776;2023-07-13T07:32:51;100553.00;;;21.98;52.36
31092;BME280;67728;53.122;12.776;2023-07-13T07:34:22;100556.00;;;22.06;51.90
31092;BME280;67728;53.122;12.776;2023-07-13T07:35:54;100550.50;;;21.82;51.55
31092;BME280;67728;53.122;12.776;2023-07-13T07:37:25;100546.00;;;22.11;52.17
31092;BME280;67728;53.122;12.776;2023-07-13T07:38:56;100544.97;;;21.87;52.03
31092;BME280;67728;53.122;12.776;2023-07-13T07:40:28;100543.56;;;21.67;52.54
31092;BME280;67728;53.122;12.776;2023-07-13T07:41:59;100538.50;;;21.50;52.72
31092;BME280;67728;53.122;12.776;2023-07-13T07:43:32;100541.38;;;21.33;54.19
31092;BME280;67728;53.122;12.776;2023-07-13T07:45:03;100539.72;;;21.59;52.66
31092;BME280;67728;53.122;12.776;2023-07-13T07:46:35;100534.84;;;21.93;53.38
31092;BME280;67728;53.122;12.776;2023-07-13T07:48:06;100542.38;;;21.85;52.09
31092;BME280;67728;53.122;12.776;2023-07-13T07:49:39;100537.09;;;21.99;51.63
31092;BME280;67728;53.122;12.776;2023-07-13T07:51:10;100532.84;;;21.97;53.06
31092;BME280;67728;53.122;12.776;2023-07-13T07:52:42;100525.56;;;22.40;52.91